sensor_id;sensor_type;location;lat;lon;timestamp;temperature;humidity
27439;DHT22;14887;51.252;7.470;2023-07-31T00:00:44;14.00;1.00
27439;DHT22;14887;51.252;7.470;2023-07-31T00:03:11;14.00;1.00
27439;DHT22;14887;51.252;7.470;2023-07-31T00:05:37;14.00;1.00
27439;DHT22;14887;51.252;7.470;2023-07-31T00:08:02;14.00;1.00
27439;DHT22;14887;51.252;7.470;2023-07-31T00:10:28;14.00;1.00
27439;DHT22;14887;51.252;7.470;2023-07-31T00:12:54;14.00;1.00
27439;DHT22;14887;51.252;7.470;2023-07-31T00:15:20;14.00;1.00
27439;DHT22;14887;51.252;7.470;2023-07-31T00:17:45;14.00;1.00
27439;DHT22;14887;51.252;7.470;2023-07-31T00:20:12;14.00;1.00
27439;DHT22;14887;51.252;7.470;2023-07-31T00:22:37;14.00;1.00
27439;DHT22;14887;51.252;7.470;2023-07-31T00:25:03;14.00;1.00
27439;DHT22;14887;51.252;7.470;2023-07-31T00:27:29;14.00;1.00
27439;DHT22;14887;51.252;7.470;2023-07-31T00:29:55;14.00;1.00
27439;DHT22;14887;51.252;7.470;2023-07-31T00:32:20;14.00;1.00
27439;DHT22;14887;51.252;7.470;2023-07-31T00:34:46;14.00;1.00
27439;DHT22;14887;51.252;7.470;2023-07-31T00:37:11;14.00;1.00
27439;DHT22;14887;51.252;7.470;2023-07-31T00:39:37;14.00;1.00
27439;DHT22;14887;51.252;7.470;2023-07-31T00:42:04;13.90;1.00
27439;DHT22;14887;51.252;7.470;2023-07-31T00:44:29;13.90;1.00
27439;DHT22;14887;51.252;7.470;2023-07-31T00:46:56;13.90;1.00
27439;DHT22;14887;51.252;7.470;2023-07-31T00:49:22;14.00;1.00
27439;DHT22;14887;51.252;7.470;2023-07-31T00:51:48;14.00;1.00
27439;DHT22;14887;51.252;7.470;2023-07-31T00:54:14;14.00;1.00
27439;DHT22;14887;51.252;7.470;2023-07-31T00:56:41;14.00;1.00
27439;DHT22;14887;51.252;7.470;2023-07-31T00:59:07;14.00;1.00
27439;DHT22;14887;51.252;7.470;2023-07-31T01:01:32;14.00;1.00
27439;DHT22;14887;51.252;7.470;2023-07-31T01:03:58;13.90;1.00
27439;DHT22;14887;51.252;7.470;2023-07-31T01:09:06;13.90;1.00
27439;DHT22;14887;51.252;7.470;2023-07-31T01:11:53;13.90;1.00
27439;DHT22;14887;51.252;7.470;2023-07-31T01:14:18;13.90;1.00
27439;DHT22;14887;51.252;7.470;2023-07-31T01:16:44;13.90;1.00
27439;DHT22;14887;51.252;7.470;2023-07-31T01:19:11;13.90;1.00
27439;DHT22;14887;51.252;7.470;2023-07-31T01:22:21;13.90;1.00
27439;DHT22;14887;51.252;7.470;2023-07-31T01:27:44;13.90;1.00
27439;DHT22;14887;51.252;7.470;2023-07-31T01:30:15;13.90;1.00
27439;DHT22;14887;51.252;7.470;2023-07-31T01:32:43;13.90;1.00
27439;DHT22;14887;51.252;7.470;2023-07-31T01:35:10;13.90;1.00
27439;DHT22;14887;51.252;7.470;2023-07-31T01:37:35;13.90;1.00
27439;DHT22;14887;51.252;7.470;2023-07-31T01:40:01;13.90;1.00
27439;DHT22;14887;51.252;7.470;2023-07-31T01:42:27;13.90;1.00
27439;DHT22;14887;51.252;7.470;2023-07-31T01:44:53;13.90;1.00
27439;DHT22;14887;51.252;7.470;2023-07-31T01:47:18;13.90;1.00
27439;DHT22;14887;51.252;7.470;2023-07-31T01:49:44;13.90;1.00
27439;DHT22;14887;51.252;7.470;2023-07-31T01:52:09;13.90;1.00
27439;DHT22;14887;51.252;7.470;2023-07-31T01:54:35;13.90;1.00
27439;DHT22;14887;51.252;7.470;2023-07-31T01:57:02;13.90;1.00
27439;DHT22;14887;51.252;7.470;2023-07-31T01:59:28;13.90;1.00
27439;DHT22;14887;51.252;7.470;2023-07-31T02:01:54;13.90;1.00
27439;DHT22;14887;51.252;7.470;2023-07-31T02:04:20;13.90;1.00
27439;DHT22;14887;51.252;7.470;2023-07-31T02:06:45;13.90;1.00
27439;DHT22;14887;51.252;7.470;2023-07-31T02:09:11;13.90;1.00
27439;DHT22;14887;51.252;7.470;2023-07-31T02:11:36;13.90;1.00
27439;DHT22;14887;51.252;7.470;2023-07-31T02:14:02;13.90;1.00
27439;DHT22;14887;51.252;7.470;2023-07-31T02:16:28;13.90;1.00
27439;DHT22;14887;51.252;7.470;2023-07-31T02:18:53;13.90;1.00
27439;DHT22;14887;51.252;7.470;2023-07-31T02:21:19;13.80;1.00
27439;DHT22;14887;51.252;7.470;2023-07-31T02:23:44;13.80;1.00
27439;DHT22;14887;51.252;7.470;2023-07-31T02:26:10;13.80;1.00
27439;DHT22;14887;51.252;7.470;2023-07-31T02:28:35;13.80;1.00
27439;DHT22;14887;51.252;7.470;2023-07-31T02:31:01;13.80;1.00
27439;DHT22;14887;51.252;7.470;2023-07-31T02:33:26;13.80;1.00
27439;DHT22;14887;51.252;7.470;2023-07-31T02:35:52;13.80;1.00
27439;DHT22;14887;51.252;7.470;2023-07-31T02:38:17;13.90;1.00
27439;DHT22;14887;51.252;7.470;2023-07-31T02:40:43;13.90;1.00
27439;DHT22;14887;51.252;7.470;2023-07-31T02:43:09;13.90;1.00
27439;DHT22;14887;51.252;7.470;2023-07-31T02:45:34;13.90;1.00
27439;DHT22;14887;51.252;7.470;2023-07-31T02:48:00;13.90;1.00
27439;DHT22;14887;51.252;7.470;2023-07-31T02:50:26;13.90;1.00
27439;DHT22;14887;51.252;7.470;2023-07-31T02:52:53;13.90;1.00
27439;DHT22;14887;51.252;7.470;2023-07-31T02:55:18;13.90;1.00
27439;DHT22;14887;51.252;7.470;2023-07-31T02:57:44;13.90;1.00
27439;DHT22;14887;51.252;7.470;2023-07-31T03:00:10;13.90;1.00
27439;DHT22;14887;51.252;7.470;2023-07-31T03:02:35;13.90;1.00
27439;DHT22;14887;51.252;7.470;2023-07-31T03:05:01;13.90;1.00
27439;DHT22;14887;51.252;7.470;2023-07-31T03:07:26;14.00;1.00
27439;DHT22;14887;51.252;7.470;2023-07-31T03:09:52;14.00;1.00
27439;DHT22;14887;51.252;7.470;2023-07-31T03:12:18;14.00;1.00
27439;DHT22;14887;51.252;7.470;2023-07-31T03:14:44;14.00;1.00
27439;DHT22;14887;51.252;7.470;2023-07-31T03:17:10;14.10;1.00
27439;DHT22;14887;51.252;7.470;2023-07-31T03:19:35;14.20;1.00
27439;DHT22;14887;51.252;7.470;2023-07-31T03:22:01;14.10;1.00
27439;DHT22;14887;51.252;7.470;2023-07-31T03:24:28;14.10;1.00
27439;DHT22;14887;51.252;7.470;2023-07-31T03:26:54;14.20;1.00
27439;DHT22;14887;51.252;7.470;2023-07-31T03:29:20;14.20;1.00
27439;DHT22;14887;51.252;7.470;2023-07-31T03:31:45;14.20;1.00
27439;DHT22;14887;51.252;7.470;2023-07-31T03:34:11;14.20;1.00
27439;DHT22;14887;51.252;7.470;2023-07-31T03:36:36;14.20;1.00
27439;DHT22;14887;51.252;7.470;2023-07-31T03:39:02;14.30;1.00
27439;DHT22;14887;51.252;7.470;2023-07-31T03:41:28;14.30;1.00
27439;DHT22;14887;51.252;7.470;2023-07-31T03:43:54;14.20;1.00
27439;DHT22;14887;51.252;7.470;2023-07-31T03:46:23;14.30;1.00
27439;DHT22;14887;51.252;7.470;2023-07-31T03:48:50;14.30;1.00
27439;DHT22;14887;51.252;7.470;2023-07-31T03:51:15;14.30;1.00
27439;DHT22;14887;51.252;7.470;2023-07-31T03:53:42;14.30;1.00
27439;DHT22;14887;51.252;7.470;2023-07-31T03:56:07;14.30;1.00
27439;DHT22;14887;51.252;7.470;2023-07-31T03:58:33;14.30;1.00
27439;DHT22;14887;51.252;7.470;2023-07-31T04:00:58;14.30;1.00
27439;DHT22;14887;51.252;7.470;2023-07-31T04:03:24;14.30;1.00
27439;DHT22;14887;51.252;7.470;2023-07-31T04:05:53;14.30;1.00
27439;DHT22;14887;51.252;7.470;2023-07-31T04:08:19;14.30;1.00
27439;DHT22;14887;51.252;7.470;2023-07-31T04:10:44;14.30;1.00
27439;DHT22;14887;51.252;7.470;2023-07-31T04:13:10;14.30;1.00
27439;DHT22;14887;51.252;7.470;2023-07-31T04:15:36;14.40;1.00
27439;DHT22;14887;51.252;7.470;2023-07-31T04:18:01;14.30;1.00
27439;DHT22;14887;51.252;7.470;2023-07-31T04:20:27;14.40;1.00
27439;DHT22;14887;51.252;7.470;2023-07-31T04:22:52;14.40;1.00
27439;DHT22;14887;51.252;7.470;2023-07-31T04:25:18;14.40;1.00
27439;DHT22;14887;51.252;7.470;2023-07-31T04:27:43;14.40;1.00
27439;DHT22;14887;51.252;7.470;2023-07-31T04:30:09;14.40;1.00
27439;DHT22;14887;51.252;7.470;2023-07-31T04:32:35;14.40;1.00
27439;DHT22;14887;51.252;7.470;2023-07-31T04:35:01;14.50;1.00
27439;DHT22;14887;51.252;7.470;2023-07-31T04:37:27;14.50;1.00
27439;DHT22;14887;51.252;7.470;2023-07-31T04:39:52;14.50;1.00
27439;DHT22;14887;51.252;7.470;2023-07-31T04:42:18;14.50;1.00
27439;DHT22;14887;51.252;7.470;2023-07-31T04:44:43;14.50;1.00
27439;DHT22;14887;51.252;7.470;2023-07-31T04:47:09;14.50;1.00
27439;DHT22;14887;51.252;7.470;2023-07-31T04:49:34;14.50;1.00
27439;DHT22;14887;51.252;7.470;2023-07-31T04:52:00;14.50;1.00
27439;DHT22;14887;51.252;7.470;2023-07-31T04:54:26;14.40;1.00
27439;DHT22;14887;51.252;7.470;2023-07-31T04:56:52;14.40;1.00
27439;DHT22;14887;51.252;7.470;2023-07-31T04:59:18;14.40;1.00
27439;DHT22;14887;51.252;7.470;2023-07-31T05:01:43;14.30;1.00
27439;DHT22;14887;51.252;7.470;2023-07-31T05:04:13;14.30;1.00
27439;DHT22;14887;51.252;7.470;2023-07-31T05:06:40;14.30;1.00
27439;DHT22;14887;51.252;7.470;2023-07-31T05:09:05;14.30;1.00
27439;DHT22;14887;51.252;7.470;2023-07-31T05:11:31;14.30;1.00
27439;DHT22;14887;51.252;7.470;2023-07-31T05:13:56;14.20;1.00
27439;DHT22;14887;51.252;7.470;2023-07-31T05:16:22;14.20;1.00
27439;DHT22;14887;51.252;7.470;2023-07-31T05:18:47;14.30;1.00
27439;DHT22;14887;51.252;7.470;2023-07-31T05:21:14;14.20;1.00
27439;DHT22;14887;51.252;7.470;2023-07-31T05:23:40;14.30;1.00
27439;DHT22;14887;51.252;7.470;2023-07-31T05:26:06;14.30;1.00
27439;DHT22;14887;51.252;7.470;2023-07-31T05:28:34;14.30;1.00
27439;DHT22;14887;51.252;7.470;2023-07-31T05:31:01;14.40;1.00
27439;DHT22;14887;51.252;7.470;2023-07-31T05:33:27;14.50;1.00
27439;DHT22;14887;51.252;7.470;2023-07-31T05:35:52;14.50;1.00
27439;DHT22;14887;51.252;7.470;2023-07-31T05:38:18;14.50;1.00
27439;DHT22;14887;51.252;7.470;2023-07-31T05:40:44;14.50;1.00
27439;DHT22;14887;51.252;7.470;2023-07-31T05:43:09;14.50;1.00
27439;DHT22;14887;51.252;7.470;2023-07-31T05:45:35;14.50;1.00
27439;DHT22;14887;51.252;7.470;2023-07-31T05:48:01;14.50;1.00
27439;DHT22;14887;51.252;7.470;2023-07-31T05:50:26;14.50;1.00
27439;DHT22;14887;51.252;7.470;2023-07-31T05:52:52;14.50;1.00
27439;DHT22;14887;51.252;7.470;2023-07-31T05:55:17;14.50;1.00
27439;DHT22;14887;51.252;7.470;2023-07-31T05:57:43;14.50;1.00
27439;DHT22;14887;51.252;7.470;2023-07-31T06:00:12;14.60;1.00
27439;DHT22;14887;51.252;7.470;2023-07-31T06:02:37;14.60;1.00
27439;DHT22;14887;51.252;7.470;2023-07-31T06:05:04;14.60;1.00
27439;DHT22;14887;51.252;7.470;2023-07-31T06:07:31;14.60;1.00
27439;DHT22;14887;51.252;7.470;2023-07-31T06:09:57;14.60;1.00
27439;DHT22;14887;51.252;7.470;2023-07-31T06:12:27;14.60;1.00
27439;DHT22;14887;51.252;7.470;2023-07-31T06:14:52;14.60;1.00
27439;DHT22;14887;51.252;7.470;2023-07-31T06:17:18;14.60;1.00
27439;DHT22;14887;51.252;7.470;2023-07-31T06:19:44;14.60;1.00
27439;DHT22;14887;51.252;7.470;2023-07-31T06:22:09;14.60;1.00
27439;DHT22;14887;51.252;7.470;2023-07-31T06:24:35;14.60;1.00
27439;DHT22;14887;51.252;7.470;2023-07-31T06:27:00;14.50;1.00
27439;DHT22;14887;51.252;7.470;2023-07-31T06:29:28;14.60;1.00
27439;DHT22;14887;51.252;7.470;2023-07-31T06:31:53;14.70;1.00
27439;DHT22;14887;51.252;7.470;2023-07-31T06:34:19;14.70;1.00
27439;DHT22;14887;51.252;7.470;2023-07-31T06:36:45;14.70;1.00
27439;DHT22;14887;51.252;7.470;2023-07-31T06:39:10;14.70;1.00
27439;DHT22;14887;51.252;7.470;2023-07-31T06:41:36;14.70;1.00
27439;DHT22;14887;51.252;7.470;2023-07-31T06:44:01;14.70;1.00
27439;DHT22;14887;51.252;7.470;2023-07-31T06:46:27;14.70;1.00
27439;DHT22;14887;51.252;7.470;2023-07-31T06:48:53;14.60;1.00
27439;DHT22;14887;51.252;7.470;2023-07-31T06:51:19;14.60;1.00
27439;DHT22;14887;51.252;7.470;2023-07-31T06:53:44;14.60;1.00
27439;DHT22;14887;51.252;7.470;2023-07-31T06:56:10;14.60;1.00
27439;DHT22;14887;51.252;7.470;2023-07-31T06:58:36;14.60;1.00
27439;DHT22;14887;51.252;7.470;2023-07-31T07:01:01;14.70;1.00
27439;DHT22;14887;51.252;7.470;2023-07-31T07:03:27;14.70;1.00
27439;DHT22;14887;51.252;7.470;2023-07-31T07:05:52;14.60;1.00
27439;DHT22;14887;51.252;7.470;2023-07-31T07:08:18;14.70;1.00
27439;DHT22;14887;51.252;7.470;2023-07-31T07:10:44;14.70;1.00
27439;DHT22;14887;51.252;7.470;2023-07-31T07:13:09;14.70;1.00
27439;DHT22;14887;51.252;7.470;2023-07-31T07:15:35;14.80;1.00
27439;DHT22;14887;51.252;7.470;2023-07-31T07:18:00;14.80;1.00
27439;DHT22;14887;51.252;7.470;2023-07-31T07:20:26;14.80;1.00
27439;DHT22;14887;51.252;7.470;2023-07-31T07:22:51;14.80;1.00
27439;DHT22;14887;51.252;7.470;2023-07-31T07:25:17;14.90;1.00
27439;DHT22;14887;51.252;7.470;2023-07-31T07:27:43;14.90;1.00
27439;DHT22;14887;51.252;7.470;2023-07-31T07:30:09;14.90;1.00
27439;DHT22;14887;51.252;7.470;2023-07-31T07:32:35;14.90;1.00
27439;DHT22;14887;51.252;7.470;2023-07-31T07:35:00;14.90;1.00
27439;DHT22;14887;51.252;7.470;2023-07-31T07:37:26;14.90;1.00
27439;DHT22;14887;51.252;7.470;2023-07-31T07:39:51;14.90;1.00
27439;DHT22;14887;51.252;7.470;2023-07-31T07:42:17;14.80;1.00
27439;DHT22;14887;51.252;7.470;2023-07-31T07:44:43;14.90;1.00
27439;DHT22;14887;51.252;7.470;2023-07-31T07:47:08;14.80;1.00
27439;DHT22;14887;51.252;7.470;2023-07-31T07:49:35;14.80;1.00
27439;DHT22;14887;51.252;7.470;2023-07-31T07:52:02;14.80;1.00
27439;DHT22;14887;51.252;7.470;2023-07-31T07:54:28;14.70;1.00
27439;DHT22;14887;51.252;7.470;2023-07-31T07:56:53;14.60;1.00
27439;DHT22;14887;51.252;7.470;2023-07-31T07:59:19;14.60;1.00
27439;DHT22;14887;51.252;7.470;2023-07-31T08:01:45;14.60;1.00
27439;DHT22;14887;51.252;7.470;2023-07-31T08:04:20;14.60;1.00
27439;DHT22;14887;51.252;7.470;2023-07-31T08:06:50;14.60;1.00
27439;DHT22;14887;51.252;7.470;2023-07-31T08:09:15;14.70;1.00
27439;DHT22;14887;51.252;7.470;2023-07-31T08:11:42;14.80;1.00
27439;DHT22;14887;51.252;7.470;2023-07-31T08:14:08;14.90;1.00
27439;DHT22;14887;51.252;7.470;2023-07-31T08:16:42;14.90;1.00
27439;DHT22;14887;51.252;7.470;2023-07-31T08:19:16;15.00;1.00
27439;DHT22;14887;51.252;7.470;2023-07-31T08:21:42;15.00;1.00
27439;DHT22;14887;51.252;7.470;2023-07-31T08:24:08;14.80;1.00
27439;DHT22;14887;51.252;7.470;2023-07-31T08:26:39;14.70;1.00
27439;DHT22;14887;51.252;7.470;2023-07-31T08:29:07;14.80;1.00
27439;DHT22;14887;51.252;7.470;2023-07-31T08:31:38;14.80;1.00
27439;DHT22;14887;51.252;7.470;2023-07-31T08:34:18;14.70;1.00
27439;DHT22;14887;51.252;7.470;2023-07-31T08:36:47;14.70;1.00
27439;DHT22;14887;51.252;7.470;2023-07-31T08:39:14;14.70;1.00
27439;DHT22;14887;51.252;7.470;2023-07-31T08:41:40;14.70;1.00
27439;DHT22;14887;51.252;7.470;2023-07-31T08:44:07;14.90;1.00
27439;DHT22;14887;51.252;7.470;2023-07-31T08:46:34;14.90;1.00
27439;DHT22;14887;51.252;7.470;2023-07-31T08:49:08;14.80;1.00
27439;DHT22;14887;51.252;7.470;2023-07-31T08:51:36;14.80;1.00
27439;DHT22;14887;51.252;7.470;2023-07-31T08:54:02;14.70;1.00
27439;DHT22;14887;51.252;7.470;2023-07-31T08:56:30;14.70;1.00
27439;DHT22;14887;51.252;7.470;2023-07-31T08:58:59;14.60;1.00
27439;DHT22;14887;51.252;7.470;2023-07-31T09:01:30;14.60;1.00
27439;DHT22;14887;51.252;7.470;2023-07-31T09:04:03;14.60;1.00
27439;DHT22;14887;51.252;7.470;2023-07-31T09:06:31;14.50;1.00
27439;DHT22;14887;51.252;7.470;2023-07-31T09:08:57;14.50;1.00
27439;DHT22;14887;51.252;7.470;2023-07-31T09:11:24;14.40;1.00
27439;DHT22;14887;51.252;7.470;2023-07-31T09:13:51;14.30;1.00
27439;DHT22;14887;51.252;7.470;2023-07-31T09:16:17;14.50;1.00
27439;DHT22;14887;51.252;7.470;2023-07-31T09:18:53;14.50;1.00
27439;DHT22;14887;51.252;7.470;2023-07-31T09:21:19;14.40;1.00
27439;DHT22;14887;51.252;7.470;2023-07-31T09:23:46;14.40;1.00
27439;DHT22;14887;51.252;7.470;2023-07-31T09:26:32;14.50;1.00
27439;DHT22;14887;51.252;7.470;2023-07-31T09:29:04;14.50;1.00
27439;DHT22;14887;51.252;7.470;2023-07-31T09:31:41;14.50;1.00
27439;DHT22;14887;51.252;7.470;2023-07-31T09:34:07;14.60;1.00
27439;DHT22;14887;51.252;7.470;2023-07-31T09:36:46;14.60;1.00
27439;DHT22;14887;51.252;7.470;2023-07-31T09:39:13;14.70;1.00
27439;DHT22;14887;51.252;7.470;2023-07-31T09:41:47;14.90;1.00
27439;DHT22;14887;51.252;7.470;2023-07-31T09:44:18;15.10;1.00
27439;DHT22;14887;51.252;7.470;2023-07-31T09:46:46;15.30;1.00
27439;DHT22;14887;51.252;7.470;2023-07-31T09:49:14;15.20;1.00
27439;DHT22;14887;51.252;7.470;2023-07-31T09:51:41;15.10;1.00
27439;DHT22;14887;51.252;7.470;2023-07-31T09:54:12;14.90;1.00
27439;DHT22;14887;51.252;7.470;2023-07-31T09:56:48;14.90;1.00
27439;DHT22;14887;51.252;7.470;2023-07-31T09:59:18;15.00;1.00
27439;DHT22;14887;51.252;7.470;2023-07-31T10:01:45;15.00;1.00
27439;DHT22;14887;51.252;7.470;2023-07-31T10:04:14;15.00;1.00
27439;DHT22;14887;51.252;7.470;2023-07-31T10:06:43;15.10;1.00
27439;DHT22;14887;51.252;7.470;2023-07-31T10:09:12;15.20;1.00
27439;DHT22;14887;51.252;7.470;2023-07-31T10:11:42;15.20;1.00
27439;DHT22;14887;51.252;7.470;2023-07-31T10:14:09;15.10;1.00
27439;DHT22;14887;51.252;7.470;2023-07-31T10:16:38;15.10;1.00
27439;DHT22;14887;51.252;7.470;2023-07-31T10:19:05;15.20;1.00
27439;DHT22;14887;51.252;7.470;2023-07-31T10:21:31;15.20;1.00
27439;DHT22;14887;51.252;7.470;2023-07-31T10:24:03;15.10;1.00
27439;DHT22;14887;51.252;7.470;2023-07-31T10:26:29;15.10;1.00
27439;DHT22;14887;51.252;7.470;2023-07-31T10:28:56;15.00;1.00
27439;DHT22;14887;51.252;7.470;2023-07-31T10:31:23;15.10;1.00
27439;DHT22;14887;51.252;7.470;2023-07-31T10:33:49;15.00;1.00
27439;DHT22;14887;51.252;7.470;2023-07-31T10:36:19;15.00;1.00
27439;DHT22;14887;51.252;7.470;2023-07-31T10:38:45;15.00;1.00
27439;DHT22;14887;51.252;7.470;2023-07-31T10:41:11;15.00;1.00
27439;DHT22;14887;51.252;7.470;2023-07-31T10:43:37;15.10;1.00
27439;DHT22;14887;51.252;7.470;2023-07-31T10:46:08;15.10;1.00
27439;DHT22;14887;51.252;7.470;2023-07-31T10:48:35;15.10;1.00
27439;DHT22;14887;51.252;7.470;2023-07-31T10:51:12;15.20;1.00
27439;DHT22;14887;51.252;7.470;2023-07-31T10:53:40;15.20;1.00
27439;DHT22;14887;51.252;7.470;2023-07-31T10:56:09;15.10;1.00
27439;DHT22;14887;51.252;7.470;2023-07-31T10:58:36;15.10;1.00
27439;DHT22;14887;51.252;7.470;2023-07-31T11:01:03;15.20;1.00
27439;DHT22;14887;51.252;7.470;2023-07-31T11:03:50;15.10;1.00
27439;DHT22;14887;51.252;7.470;2023-07-31T11:06:19;15.30;1.00
27439;DHT22;14887;51.252;7.470;2023-07-31T11:08:49;15.10;1.00
27439;DHT22;14887;51.252;7.470;2023-07-31T11:11:17;15.10;1.00
27439;DHT22;14887;51.252;7.470;2023-07-31T11:13:51;15.10;1.00
27439;DHT22;14887;51.252;7.470;2023-07-31T11:16:24;15.10;1.00
27439;DHT22;14887;51.252;7.470;2023-07-31T11:18:51;15.10;1.00
27439;DHT22;14887;51.252;7.470;2023-07-31T11:21:20;15.10;1.00
27439;DHT22;14887;51.252;7.470;2023-07-31T11:23:51;15.10;1.00
27439;DHT22;14887;51.252;7.470;2023-07-31T11:26:17;15.10;1.00
27439;DHT22;14887;51.252;7.470;2023-07-31T11:28:46;15.10;1.00
27439;DHT22;14887;51.252;7.470;2023-07-31T11:31:11;15.20;1.00
27439;DHT22;14887;51.252;7.470;2023-07-31T11:33:37;15.30;1.00
27439;DHT22;14887;51.252;7.470;2023-07-31T11:36:03;15.40;1.00
27439;DHT22;14887;51.252;7.470;2023-07-31T11:38:31;15.40;1.00
27439;DHT22;14887;51.252;7.470;2023-07-31T11:41:02;15.60;1.00
27439;DHT22;14887;51.252;7.470;2023-07-31T11:43:28;15.60;4.70
27439;DHT22;14887;51.252;7.470;2023-07-31T11:45:59;15.70;5.10
27439;DHT22;14887;51.252;7.470;2023-07-31T11:48:29;15.60;5.90
27439;DHT22;14887;51.252;7.470;2023-07-31T11:51:00;15.70;6.00
27439;DHT22;14887;51.252;7.470;2023-07-31T11:53:36;15.80;4.90
27439;DHT22;14887;51.252;7.470;2023-07-31T11:56:04;15.80;2.10
27439;DHT22;14887;51.252;7.470;2023-07-31T11:58:34;15.60;3.80
27439;DHT22;14887;51.252;7.470;2023-07-31T12:01:00;15.50;1.00
27439;DHT22;14887;51.252;7.470;2023-07-31T12:03:26;15.50;1.00
27439;DHT22;14887;51.252;7.470;2023-07-31T12:05:55;15.50;1.00
27439;DHT22;14887;51.252;7.470;2023-07-31T12:08:22;15.40;1.00
27439;DHT22;14887;51.252;7.470;2023-07-31T12:10:52;15.40;1.00
27439;DHT22;14887;51.252;7.470;2023-07-31T12:13:25;15.40;1.00
27439;DHT22;14887;51.252;7.470;2023-07-31T12:15:59;15.30;1.00
27439;DHT22;14887;51.252;7.470;2023-07-31T12:18:27;15.30;1.00
27439;DHT22;14887;51.252;7.470;2023-07-31T12:20:57;15.30;1.00
27439;DHT22;14887;51.252;7.470;2023-07-31T12:23:29;15.30;1.00
27439;DHT22;14887;51.252;7.470;2023-07-31T12:31:19;15.20;1.00
27439;DHT22;14887;51.252;7.470;2023-07-31T12:33:47;15.30;1.00
27439;DHT22;14887;51.252;7.470;2023-07-31T12:36:14;15.30;1.00
27439;DHT22;14887;51.252;7.470;2023-07-31T12:38:41;15.40;1.00
27439;DHT22;14887;51.252;7.470;2023-07-31T12:41:07;15.40;1.00
27439;DHT22;14887;51.252;7.470;2023-07-31T12:43:34;15.30;1.00
27439;DHT22;14887;51.252;7.470;2023-07-31T12:46:00;15.30;1.00
27439;DHT22;14887;51.252;7.470;2023-07-31T12:48:25;15.40;1.00
27439;DHT22;14887;51.252;7.470;2023-07-31T12:50:51;15.50;1.00
27439;DHT22;14887;51.252;7.470;2023-07-31T12:53:17;15.50;1.00
27439;DHT22;14887;51.252;7.470;2023-07-31T12:55:43;15.60;1.00
27439;DHT22;14887;51.252;7.470;2023-07-31T12:58:09;15.70;3.00
27439;DHT22;14887;51.252;7.470;2023-07-31T13:00:35;16.00;5.10
27439;DHT22;14887;51.252;7.470;2023-07-31T13:03:01;16.00;12.10
27439;DHT22;14887;51.252;7.470;2023-07-31T13:05:27;16.00;18.50
27439;DHT22;14887;51.252;7.470;2023-07-31T13:07:53;15.90;18.40
27439;DHT22;14887;51.252;7.470;2023-07-31T13:10:20;15.90;18.80
27439;DHT22;14887;51.252;7.470;2023-07-31T13:12:46;16.00;16.20
27439;DHT22;14887;51.252;7.470;2023-07-31T13:15:12;16.10;16.50
27439;DHT22;14887;51.252;7.470;2023-07-31T13:17:38;16.20;16.40
27439;DHT22;14887;51.252;7.470;2023-07-31T13:20:04;16.10;20.00
27439;DHT22;14887;51.252;7.470;2023-07-31T13:22:30;16.10;21.70
27439;DHT22;14887;51.252;7.470;2023-07-31T13:24:56;16.00;18.50
27439;DHT22;14887;51.252;7.470;2023-07-31T13:27:21;16.20;14.50
27439;DHT22;14887;51.252;7.470;2023-07-31T13:29:53;16.10;19.70
27439;DHT22;14887;51.252;7.470;2023-07-31T13:32:20;16.10;16.60
27439;DHT22;14887;51.252;7.470;2023-07-31T13:34:46;16.10;19.90
27439;DHT22;14887;51.252;7.470;2023-07-31T13:37:12;16.10;22.80
27439;DHT22;14887;51.252;7.470;2023-07-31T13:39:38;16.00;18.80
27439;DHT22;14887;51.252;7.470;2023-07-31T13:42:05;16.00;16.10
27439;DHT22;14887;51.252;7.470;2023-07-31T13:44:37;15.90;13.50
27439;DHT22;14887;51.252;7.470;2023-07-31T13:47:03;16.10;11.10
27439;DHT22;14887;51.252;7.470;2023-07-31T13:49:29;15.90;10.10
27439;DHT22;14887;51.252;7.470;2023-07-31T13:51:55;15.90;9.50
27439;DHT22;14887;51.252;7.470;2023-07-31T13:54:22;15.90;7.60
27439;DHT22;14887;51.252;7.470;2023-07-31T13:56:48;15.90;9.20
27439;DHT22;14887;51.252;7.470;2023-07-31T13:59:13;15.90;12.30
27439;DHT22;14887;51.252;7.470;2023-07-31T14:01:41;15.90;13.20
27439;DHT22;14887;51.252;7.470;2023-07-31T14:04:07;15.90;13.10
27439;DHT22;14887;51.252;7.470;2023-07-31T14:06:32;15.90;13.10
27439;DHT22;14887;51.252;7.470;2023-07-31T14:08:58;15.90;14.80
27439;DHT22;14887;51.252;7.470;2023-07-31T14:11:23;15.90;15.20
27439;DHT22;14887;51.252;7.470;2023-07-31T14:13:50;16.10;16.00
27439;DHT22;14887;51.252;7.470;2023-07-31T14:16:16;16.20;17.80
27439;DHT22;14887;51.252;7.470;2023-07-31T14:18:41;16.30;19.10
27439;DHT22;14887;51.252;7.470;2023-07-31T14:21:07;16.40;24.80
27439;DHT22;14887;51.252;7.470;2023-07-31T14:23:33;16.50;27.30
27439;DHT22;14887;51.252;7.470;2023-07-31T14:25:59;16.60;28.00
27439;DHT22;14887;51.252;7.470;2023-07-31T14:28:24;16.70;26.00
27439;DHT22;14887;51.252;7.470;2023-07-31T14:30:50;16.70;27.90
27439;DHT22;14887;51.252;7.470;2023-07-31T14:33:15;16.80;23.40
27439;DHT22;14887;51.252;7.470;2023-07-31T14:35:41;16.90;21.10
27439;DHT22;14887;51.252;7.470;2023-07-31T14:38:07;17.00;20.60
27439;DHT22;14887;51.252;7.470;2023-07-31T14:40:32;17.00;14.80
27439;DHT22;14887;51.252;7.470;2023-07-31T14:42:58;16.90;7.30
27439;DHT22;14887;51.252;7.470;2023-07-31T14:45:23;16.90;1.20
27439;DHT22;14887;51.252;7.470;2023-07-31T14:47:49;16.70;1.00
27439;DHT22;14887;51.252;7.470;2023-07-31T14:50:15;16.70;1.00
27439;DHT22;14887;51.252;7.470;2023-07-31T14:52:41;16.80;1.00
27439;DHT22;14887;51.252;7.470;2023-07-31T14:55:07;16.80;1.00
27439;DHT22;14887;51.252;7.470;2023-07-31T14:57:33;16.90;1.00
27439;DHT22;14887;51.252;7.470;2023-07-31T14:59:59;16.70;1.00
27439;DHT22;14887;51.252;7.470;2023-07-31T15:02:26;16.70;1.00
27439;DHT22;14887;51.252;7.470;2023-07-31T15:04:51;16.60;1.00
27439;DHT22;14887;51.252;7.470;2023-07-31T15:07:17;16.50;1.00
27439;DHT22;14887;51.252;7.470;2023-07-31T15:09:43;16.50;1.00
27439;DHT22;14887;51.252;7.470;2023-07-31T15:12:08;16.40;1.00
27439;DHT22;14887;51.252;7.470;2023-07-31T15:14:34;16.30;1.00
27439;DHT22;14887;51.252;7.470;2023-07-31T15:17:00;16.30;1.00
27439;DHT22;14887;51.252;7.470;2023-07-31T15:19:26;16.40;1.00
27439;DHT22;14887;51.252;7.470;2023-07-31T15:21:51;16.30;1.00
27439;DHT22;14887;51.252;7.470;2023-07-31T15:24:17;16.40;1.00
27439;DHT22;14887;51.252;7.470;2023-07-31T15:26:43;16.40;1.00
27439;DHT22;14887;51.252;7.470;2023-07-31T15:29:08;16.30;1.00
27439;DHT22;14887;51.252;7.470;2023-07-31T15:31:35;16.40;1.00
27439;DHT22;14887;51.252;7.470;2023-07-31T15:34:01;16.30;1.00
27439;DHT22;14887;51.252;7.470;2023-07-31T15:36:26;16.40;1.00
27439;DHT22;14887;51.252;7.470;2023-07-31T15:38:52;16.20;1.00
27439;DHT22;14887;51.252;7.470;2023-07-31T15:41:18;16.20;1.00
27439;DHT22;14887;51.252;7.470;2023-07-31T15:43:44;16.20;1.00
27439;DHT22;14887;51.252;7.470;2023-07-31T15:46:10;16.20;1.00
27439;DHT22;14887;51.252;7.470;2023-07-31T15:48:35;16.30;1.00
27439;DHT22;14887;51.252;7.470;2023-07-31T15:51:01;16.30;1.00
27439;DHT22;14887;51.252;7.470;2023-07-31T15:53:28;16.30;1.00